• Join FlightAware (Why Join?)
  • Login
  • US Flag 
03:45AM EDT


 

Airport Tracker/Info


-or-


 

Live Flight TrackerFlight Track Log ✈ DAL362 ✈ 06-Jun-2013 ✈ MKJS / MBJ - KATL

Flight Track Log - Related Links

Times and Time Zones

All times are in EDT time to prevent confusion due to time zone crossing. See the DAL362 flight status page for this flight to view local times or setup timezone preferences in your user account.

Time Position Orientation Groundspeed Altitude Reporting Facility
EDT Latitude Longitude Course Direction KTS MPH feet Rate Location/Type
04:13PM 18.6252 -77.9380 349° North  Level FlightAware Approximate
04:14PM 18.7467 -77.9626 349° North  Level FlightAware Approximate
04:15PM 18.8682 -77.9873 349° North  Level FlightAware Approximate
04:16PM 18.9897 -78.0120 349° North  Level FlightAware Approximate
04:17PM 19.1112 -78.0367 349° North  Level FlightAware Approximate
04:18PM 19.2327 -78.0615 349° North  Level FlightAware Approximate
04:19PM 19.3542 -78.0863 349° North  Level FlightAware Approximate
04:20PM 19.4757 -78.1112 349° North  Level FlightAware Approximate
04:21PM 19.5972 -78.1361 349° North  Level FlightAware Approximate
04:22PM 19.7187 -78.1610 349° North  Level FlightAware Approximate
04:23PM 19.8402 -78.1860 349° North  Level FlightAware Approximate
04:24PM 19.9616 -78.2110 349° North  Level FlightAware Approximate
04:25PM 20.0831 -78.2360 349° North  Level FlightAware Approximate
04:26PM 20.2046 -78.2611 349° North  Level FlightAware Approximate
04:27PM 20.3260 -78.2862 349° North  Level FlightAware Approximate
04:28PM 20.4475 -78.3114 349° North  Level FlightAware Approximate
04:29PM 20.5689 -78.3366 349° North  Level FlightAware Approximate
04:30PM 20.6842 -78.3617 348° North  Level FlightAware Approximate
04:31PM 20.8052 -78.3896 348° North  Level FlightAware Approximate
04:32PM 20.9265 -78.4156 349° North  Level FlightAware Approximate
04:33PM 21.0480 -78.4404 349° North  Level FlightAware Approximate
04:34PM 21.1696 -78.4652 349° North  Level FlightAware Approximate
04:35PM 21.2911 -78.4901 349° North  Level FlightAware Approximate
04:36PM 21.4126 -78.5151 349° North  Level FlightAware Approximate
04:37PM 21.5341 -78.5400 349° North  Level FlightAware Approximate
04:38PM 21.6557 -78.5650 349° North  Level FlightAware Approximate
04:39PM 21.7772 -78.5901 349° North  Level FlightAware Approximate
04:40PM 21.8987 -78.6152 349° North  Level FlightAware Approximate
04:41PM 22.0202 -78.6403 349° North  Level FlightAware Approximate
04:42PM 22.1417 -78.6655 349° North  Level FlightAware Approximate
04:43PM 22.2632 -78.6907 349° North  Level FlightAware Approximate
04:44PM 22.3847 -78.7160 349° North  Level FlightAware Approximate
04:45PM 22.5062 -78.7413 349° North  Level FlightAware Approximate
04:46PM 22.6277 -78.7667 349° North  Level FlightAware Approximate
04:47PM 22.7492 -78.7921 349° North  Level FlightAware Approximate
04:48PM 22.8707 -78.8176 349° North  Level FlightAware Approximate
04:49PM 22.9920 -78.8441 349° North  Level FlightAware Approximate
04:50PM 23.1133 -78.8707 349° North  Level FlightAware Approximate
04:51PM 23.2345 -78.8973 349° North  Level FlightAware Approximate
04:52PM 23.3558 -78.9240 349° North  Level FlightAware Approximate
04:53PM 23.4771 -78.9508 349° North  Level FlightAware Approximate
04:54PM 23.5984 -78.9776 349° North  Level FlightAware Approximate
04:55PM 23.7205 -79.0046 349° North  Level FlightAware Approximate
04:56PM 23.8426 -79.0317 349° North  Level FlightAware Approximate
04:57PM 23.9648 -79.0588 349° North  Level FlightAware Approximate
04:57PM 23.2847 -78.9172 331° Northwest 449 517 34,000  Level Miami Center
04:58PM 24.0787 -79.1113 331° Northwest  Level FlightAware Approximate
04:58PM 23.4014 -78.9350 352° North 437 503 34,000  Level Miami Center
04:59PM 24.1873 -79.1784 331° Northwest  Level FlightAware Approximate
04:59PM 23.5222 -78.9617 349° North 444 511 34,000  Level Miami Center
05:00PM 24.2958 -79.2456 331° Northwest  Level FlightAware Approximate
05:00PM 23.6494 -78.9889 349° North 448 516 34,000  Level Miami Center
05:01PM 24.4043 -79.3129 331° Northwest  Level FlightAware Approximate
05:01PM 23.7764 -79.0206 347° North 453 521 34,000  Level Miami Center
05:02PM 24.5128 -79.3803 331° Northwest  Level FlightAware Approximate
05:02PM 23.8972 -79.0475 348° North 446 513 34,000  Level Miami Center
05:03PM 24.0178 -79.0836 345° North 446 513 34,000  Level Miami Center
05:04PM 24.1233 -79.1447 332° Northwest 445 512 34,000  Level Miami Center
05:05PM 24.2417 -79.2061 335° Northwest 452 520 34,000  Level Miami Center
05:06PM 24.3600 -79.2450 343° North 452 520 34,000  Level Miami Center
05:07PM 24.4786 -79.2858 343° North 447 514 34,000  Level Miami Center
05:08PM 24.5989 -79.3272 343° North 447 514 34,000  Level Miami Center
05:09PM 24.7153 -79.3706 341° North 442 509 34,000  Level Miami Center
05:10PM 24.8381 -79.3936 350° North 442 509 34,000  Level Miami Center
05:11PM 24.9656 -79.4008 357° North 447 514 34,000  Level Miami Center
05:12PM 25.0928 -79.4081 357° North 447 514 34,000  Level Miami Center
05:13PM 25.2203 -79.4061 North 447 514 34,000  Level Miami Center
05:14PM 25.3500 -79.3997 North 457 526 34,000  Level Miami Center
05:15PM 25.4753 -79.3956 North 457 526 34,000  Level Miami Center
05:16PM 25.6050 -79.3889 North 462 532 34,000  Level Miami Center
05:17PM 25.7306 -79.3800 North 457 526 34,000  Level Miami Center
05:18PM 25.8539 -79.3850 358° North 451 519 34,000  Level Miami Center
05:19PM 25.9528 -79.4564 327° Northwest 418 481 34,000  Level Miami Center
05:20PM 26.0133 -79.5708 301° West 407 468 34,000  Level Miami Center
05:21PM 26.0717 -79.6925 298° West 420 483 34,000  Level Miami Center
05:22PM 26.1236 -79.8094 296° West 420 483 34,000  Level Miami Center
05:23PM 26.1775 -79.9289 297° West 426 490 34,000  Level Miami Center
05:24PM 26.2356 -80.0461 299° West 431 496 34,000  Level Miami Center
05:25PM 26.3106 -80.1594 306° West 444 511 34,000  Level Miami Center
05:26PM 26.3831 -80.2681 307° West 449 517 34,000  Level Miami Center
05:27PM 26.4644 -80.3633 314° West 435 501 34,000 120 Level Miami Center
05:28PM 26.5822 -80.4108 340° North 425 489 34,300 360 Climbing Miami Center
05:29PM 26.7006 -80.4492 344° North 442 509 34,800 300 Climbing Miami Center
05:30PM 26.8039 -80.4850 343° North 442 509 35,000 60 Climbing Miami Center
05:31PM 26.9242 -80.5261 343° North 437 503 35,000  Level Miami Center
05:32PM 27.0464 -80.5650 344° North 442 509 35,000  Level Miami Center
05:33PM 27.1683 -80.6061 343° North 447 514 35,000  Level Miami Center
05:34PM 27.2906 -80.6450 344° North 452 520 35,000  Level Miami Center
05:35PM 27.4128 -80.6842 344° North 452 520 35,000  Level Miami Center
05:36PM 27.5347 -80.7233 344° North 452 520 35,000  Level Miami Center
05:37PM 27.6589 -80.7650 343° North 452 520 35,000  Level Miami Center
05:38PM 27.7936 -80.8025 346° North 452 520 35,000  Level Miami Center
05:39PM 27.9178 -80.8422 344° North 452 520 35,000  Level Miami Center
05:40PM 28.0417 -80.8864 343° North 457 526 35,000  Level Miami Center
05:41PM 28.1636 -80.9283 343° North 457 526 35,000  Level Miami Center
05:42PM 28.2897 -80.9708 343° North 457 526 35,000  Level Miami Center
05:44PM 28.5900 -81.0817 342° North 471 542 35,000  Level Jacksonville Center
05:45PM 28.7178 -81.1219 345° North 471 542 35,000  Level Jacksonville Center
05:46PM 28.8436 -81.1528 348° North 471 542 35,000  Level Jacksonville Center
05:47PM 28.9756 -81.1861 348° North 476 548 35,000  Level Jacksonville Center
05:48PM 29.1053 -81.2172 348° North 471 542 35,000  Level Jacksonville Center
05:49PM 29.2350 -81.2458 349° North 472 543 35,000  Level Jacksonville Center
05:50PM 29.3669 -81.2747 349° North 472 543 35,100  Climbing Jacksonville Center
05:51PM 29.4800 -81.3036 347° North 472 543 35,000 -60 Descending Jacksonville Center
05:52PM 29.6078 -81.3350 348° North 467 537 35,000  Level Jacksonville Center
05:53PM 29.7356 -81.3667 348° North 467 537 35,000  Level Jacksonville Center
05:54PM 29.8611 -81.4053 345° North 467 537 35,000  Level Jacksonville Center
05:55PM 29.9828 -81.4539 341° North 462 532 35,000  Level Jacksonville Center
05:56PM 30.1192 -81.5094 341° North 467 537 35,000  Level Jacksonville Center
05:57PM 30.2428 -81.5581 341° North 467 537 35,000  Level Jacksonville Center
05:58PM 30.3686 -81.6069 341° North 467 537 35,000  Level Jacksonville Center
05:59PM 30.4944 -81.6558 341° North 467 537 35,000  Level Jacksonville Center
06:00PM 30.6181 -81.7075 340° North 467 537 35,000  Level Jacksonville Center
06:01PM 30.7375 -81.7614 339° North 467 537 35,000  Level Jacksonville Center
06:02PM 30.8569 -81.8181 338° Northwest 462 532 35,000  Level Jacksonville Center
06:03PM 30.9683 -81.8797 335° Northwest 451 519 35,000  Level Jacksonville Center
06:04PM 31.0794 -81.9442 334° Northwest 445 512 35,000  Level Jacksonville Center
06:05PM 31.1906 -82.0158 331° Northwest 444 511 35,000  Level Jacksonville Center
06:06PM 31.3036 -82.0781 335° Northwest 449 517 35,000  Level Jacksonville Center
06:07PM 31.4169 -82.1500 332° Northwest 455 524 35,000  Level Jacksonville Center
06:08PM 31.5322 -82.2150 334° Northwest 455 524 35,000  Level Jacksonville Center
06:10PM 31.7917 -82.3675 333° Northwest 469 540 35,000  Level Atlanta Center
06:11PM 31.9117 -82.4386 333° Northwest 474 545 35,000  Level Atlanta Center
06:12PM 32.0272 -82.5125 332° Northwest 474 545 35,000 -120 Level Atlanta Center
06:13PM 32.1267 -82.6139 319° Northwest 474 545 34,800 -1,260 Descending Atlanta Center
06:14PM 32.2239 -82.7206 317° Northwest 474 545 32,500 -1,980 Descending Atlanta Center
06:15PM 32.3231 -82.8294 317° Northwest 474 545 30,900 -1,620 Descending Atlanta Center
06:16PM 32.4219 -82.9339 318° Northwest 480 552 29,300 -2,700 Descending Atlanta Center
06:17PM 32.5233 -83.0461 317° Northwest 485 558 25,600 -3,000 Descending Atlanta Center
06:18PM 32.6242 -83.1558 318° Northwest 485 558 23,400 -2,460 Descending Atlanta Center
06:19PM 32.7167 -83.2561 318° Northwest 479 551 20,700 -2,220 Descending Atlanta Center
06:20PM 32.8092 -83.3567 318° Northwest 467 537 19,000 -1,740 Descending Atlanta Center
06:21PM 32.9017 -83.4575 318° Northwest 450 518 17,300 -1,620 Descending Atlanta Center
06:22PM 32.9875 -83.5533 317° Northwest 439 505 15,800 -1,560 Descending Atlanta Center
06:23PM 33.0694 -83.6472 316° Northwest 418 481 14,200 -960 Descending Atlanta Center
06:24PM 33.1333 -83.7167 318° Northwest 353 406 14,000 -120 Descending Atlanta TRACON
06:25PM 33.2000 -83.7833 320° Northwest 312 359 14,000 -120 Level Atlanta TRACON
06:26PM 33.2500 -83.8667 306° West 312 359 13,800 -900 Descending Atlanta TRACON
06:27PM 33.3142 -83.9519 312° West 302 348 12,200 -900 Descending Atlanta Center
06:28PM 33.3642 -84.0339 306° West 302 348 12,000 -120 Descending Atlanta Center
06:29PM 33.4122 -84.1061 309° West 302 348 12,000  Level Atlanta Center
06:30PM 33.4644 -84.1858 308° West 302 348 12,000  Level Atlanta Center
06:31PM 33.5164 -84.2681 307° West 302 348 12,000 -1,020 Level Atlanta Center
06:33PM 33.5500 -84.4667 282° West 306 352 9,000 -1,800 Descending Atlanta TRACON
06:34PM 33.5500 -84.5667 270° West 273 314 6,400 -2,040 Descending Atlanta TRACON
06:35PM 33.5500 -84.6333 270° West 242 278 5,000 -1,560 Descending Atlanta TRACON